createdAt,value
2022-10-29T00:01:05.685Z,100765.09
2022-10-29T00:03:33.091Z,100758.41
2022-10-29T00:06:04.388Z,100756.63
2022-10-29T00:08:34.723Z,100763.19
2022-10-29T00:11:12.341Z,100755.00
2022-10-29T00:13:40.652Z,100754.50
2022-10-29T00:16:19.098Z,100757.00
2022-10-29T00:18:47.293Z,100755.94
2022-10-29T00:21:18.824Z,100749.94
2022-10-29T00:23:50.828Z,100746.53
2022-10-29T00:26:21.398Z,100745.22
2022-10-29T00:28:52.644Z,100742.97
2022-10-29T00:31:24.286Z,100736.84
2022-10-29T00:33:56.192Z,100732.66
2022-10-29T00:36:27.774Z,100736.13
2022-10-29T00:38:57.087Z,100730.19
2022-10-29T00:41:29.130Z,100741.47
2022-10-29T00:44:15.161Z,100733.94
2022-10-29T00:46:51.875Z,100735.03
2022-10-29T00:49:20.516Z,100739.50
2022-10-29T00:51:49.243Z,100741.38
2022-10-29T00:54:17.623Z,100738.50
2022-10-29T00:56:56.484Z,100729.44
2022-10-29T00:59:25.220Z,100730.19
2022-10-29T01:01:55.987Z,100739.72
2022-10-29T01:04:25.662Z,100731.06
2022-10-29T01:06:54.001Z,100736.03
2022-10-29T01:09:21.541Z,100738.03
2022-10-29T01:12:28.358Z,100735.09
2022-10-29T01:15:01.641Z,100730.53
2022-10-29T01:17:38.156Z,100734.59
2022-10-29T01:20:36.666Z,100735.41
2022-10-29T01:23:25.089Z,100725.81
2022-10-29T01:26:27.191Z,100722.78
2022-10-29T01:29:44.879Z,100720.47
2022-10-29T01:32:20.318Z,100708.13
2022-10-29T01:35:00.226Z,100708.44
2022-10-29T01:38:04.525Z,100703.78
2022-10-29T01:41:07.069Z,100703.56
2022-10-29T01:43:43.159Z,100700.97
2022-10-29T01:46:30.284Z,100693.63
2022-10-29T01:49:03.491Z,100695.19
2022-10-29T01:51:34.411Z,100699.66
2022-10-29T01:54:10.283Z,100701.22
2022-10-29T01:56:38.681Z,100690.25
2022-10-29T01:59:18.485Z,100696.53
2022-10-29T02:02:48.226Z,100695.44
2022-10-29T02:05:38.621Z,100703.25
2022-10-29T02:08:34.361Z,100696.81
2022-10-29T02:11:29.885Z,100698.13
2022-10-29T02:13:59.296Z,100700.44
2022-10-29T02:16:28.395Z,100701.25
2022-10-29T02:18:58.078Z,100702.63
2022-10-29T02:21:25.701Z,100701.09
2022-10-29T02:23:53.395Z,100696.88
2022-10-29T02:26:21.873Z,100696.63
2022-10-29T02:28:49.490Z,100699.00
2022-10-29T02:31:17.013Z,100695.91
2022-10-29T02:33:44.470Z,100692.47
2022-10-29T02:36:11.906Z,100684.88
2022-10-29T02:38:39.365Z,100696.38
2022-10-29T02:41:06.877Z,100693.50
2022-10-29T02:43:34.403Z,100693.25
2022-10-29T02:46:31.587Z,100686.44
2022-10-29T02:48:59.159Z,100687.50
2022-10-29T02:51:26.640Z,100681.22
2022-10-29T02:53:54.114Z,100691.16
2022-10-29T02:56:21.644Z,100690.06
2022-10-29T02:58:49.760Z,100686.44
2022-10-29T03:01:17.260Z,100680.97
2022-10-29T03:03:44.795Z,100679.09
2022-10-29T03:06:17.146Z,100677.25
2022-10-29T03:08:45.937Z,100678.25
2022-10-29T03:11:13.823Z,100682.69
2022-10-29T03:13:41.415Z,100688.19
2022-10-29T03:16:09.758Z,100685.84
2022-10-29T03:18:37.865Z,100675.41
2022-10-29T03:21:05.294Z,100681.41
2022-10-29T03:23:32.752Z,100678.31
2022-10-29T03:26:00.314Z,100677.75
2022-10-29T03:28:28.412Z,100683.75
2022-10-29T03:30:56.414Z,100685.66
2022-10-29T03:33:26.675Z,100685.91
2022-10-29T03:36:03.381Z,100683.59
2022-10-29T03:38:35.325Z,100680.44
2022-10-29T03:41:08.615Z,100682.53
2022-10-29T03:43:39.612Z,100684.09
2022-10-29T03:46:07.784Z,100684.81
2022-10-29T03:48:35.347Z,100683.25
2022-10-29T03:51:06.051Z,100686.56
2022-10-29T03:53:36.028Z,100687.09
2022-10-29T03:56:04.981Z,100687.84
2022-10-29T03:58:32.807Z,100682.38
2022-10-29T04:01:03.809Z,100688.16
2022-10-29T04:03:33.497Z,100682.47
2022-10-29T04:06:10.285Z,100683.00
2022-10-29T04:08:38.529Z,100681.47
2022-10-29T04:11:08.108Z,100671.25
2022-10-29T04:13:35.552Z,100662.38
2022-10-29T04:16:03.151Z,100670.53
2022-10-29T04:18:30.596Z,100670.78
2022-10-29T04:23:06.179Z,100669.22
2022-10-29T04:29:27.243Z,100677.28
2022-10-29T04:31:54.691Z,100682.28
2022-10-29T04:34:22.118Z,100685.94
2022-10-29T04:36:50.250Z,100682.28
2022-10-29T04:39:19.643Z,100685.91
2022-10-29T04:41:50.018Z,100674.41
2022-10-29T04:44:17.537Z,100685.88
2022-10-29T04:46:44.960Z,100689.06
2022-10-29T04:49:12.456Z,100689.31
2022-10-29T04:51:39.975Z,100685.94
2022-10-29T04:54:07.510Z,100698.50
2022-10-29T04:56:34.949Z,100695.31
2022-10-29T04:59:02.431Z,100692.72
2022-10-29T05:01:31.281Z,100686.44
2022-10-29T05:04:00.107Z,100691.13
2022-10-29T05:06:27.917Z,100684.84
2022-10-29T05:08:55.346Z,100684.59
2022-10-29T05:11:22.894Z,100683.03
2022-10-29T05:13:50.427Z,100686.44
2022-10-29T05:16:18.006Z,100688.28
2022-10-29T05:18:48.187Z,100685.66
2022-10-29T05:21:15.695Z,100696.41
2022-10-29T05:23:43.409Z,100690.56
2022-10-29T05:26:11.083Z,100689.03
2022-10-29T05:28:38.662Z,100695.09
2022-10-29T05:31:06.895Z,100706.81
2022-10-29T05:33:37.128Z,100699.78
2022-10-29T05:36:07.945Z,100701.09
2022-10-29T05:38:36.676Z,100705.81
2022-10-29T05:41:06.041Z,100707.91
2022-10-29T05:43:34.861Z,100706.59
2022-10-29T05:46:05.716Z,100705.28
2022-10-29T05:48:34.885Z,100712.59
2022-10-29T05:51:02.388Z,100722.25
2022-10-29T05:53:29.940Z,100717.91
2022-10-29T05:55:59.417Z,100721.22
2022-10-29T05:58:26.893Z,100724.63
2022-10-29T06:00:54.381Z,100717.81
2022-10-29T06:03:24.070Z,100722.75
2022-10-29T06:05:52.182Z,100725.00
2022-10-29T06:08:20.362Z,100729.22
2022-10-29T06:10:47.807Z,100725.38
2022-10-29T06:13:22.193Z,100722.47
2022-10-29T06:15:59.035Z,100728.44
2022-10-29T06:18:32.360Z,100733.31
2022-10-29T06:21:00.850Z,100736.03
2022-10-29T06:23:29.705Z,100731.84
2022-10-29T06:26:01.087Z,100730.31
2022-10-29T06:28:33.748Z,100738.00
2022-10-29T06:31:04.479Z,100731.47
2022-10-29T06:33:32.004Z,100748.91
2022-10-29T06:36:01.519Z,100737.53
2022-10-29T06:38:29.179Z,100745.41
2022-10-29T06:40:56.688Z,100739.81
2022-10-29T06:43:24.130Z,100741.94
2022-10-29T06:45:52.281Z,100743.88
2022-10-29T06:48:22.398Z,100747.56
2022-10-29T06:50:51.228Z,100745.22
2022-10-29T06:53:19.249Z,100743.25
2022-10-29T06:55:46.779Z,100741.13
2022-10-29T06:58:17.752Z,100742.97
2022-10-29T07:00:46.385Z,100742.69
2022-10-29T07:03:20.828Z,100747.78
2022-10-29T07:05:54.877Z,100736.97
2022-10-29T07:08:22.453Z,100737.38
2022-10-29T07:10:57.704Z,100735.66
2022-10-29T07:13:25.294Z,100740.47
2022-10-29T07:15:52.724Z,100737.03
2022-10-29T07:18:21.481Z,100731.97
2022-10-29T07:20:49.011Z,100737.66
2022-10-29T07:23:16.501Z,100731.09
2022-10-29T07:25:44.226Z,100735.72
2022-10-29T07:28:14.228Z,100745.13
2022-10-29T07:30:42.856Z,100736.06
2022-10-29T07:33:10.953Z,100735.09
2022-10-29T07:35:38.995Z,100731.94
2022-10-29T07:38:10.883Z,100729.69
2022-10-29T07:40:46.230Z,100729.03
2022-10-29T07:43:14.013Z,100726.56
2022-10-29T07:45:44.735Z,100724.84
2022-10-29T07:48:12.384Z,100726.66
2022-10-29T07:50:39.929Z,100731.19
2022-10-29T07:53:08.114Z,100733.78
2022-10-29T07:55:36.007Z,100734.75
2022-10-29T07:58:12.361Z,100730.38
2022-10-29T08:00:41.772Z,100735.59
2022-10-29T08:03:12.198Z,100729.00
2022-10-29T08:05:42.684Z,100729.34
2022-10-29T08:08:13.595Z,100729.97
2022-10-29T08:10:41.339Z,100729.28
2022-10-29T08:13:08.760Z,100725.91
2022-10-29T08:15:36.621Z,100727.00
2022-10-29T08:18:17.012Z,100727.72
2022-10-29T08:20:45.219Z,100725.69
2022-10-29T08:23:14.273Z,100725.53
2022-10-29T08:25:43.486Z,100717.88
2022-10-29T08:28:16.286Z,100715.56
2022-10-29T08:30:47.319Z,100705.59
2022-10-29T08:33:14.791Z,100707.56
2022-10-29T08:35:42.254Z,100711.56
2022-10-29T08:38:10.012Z,100706.22
2022-10-29T08:41:07.621Z,100711.69
2022-10-29T08:44:08.393Z,100700.31
2022-10-29T08:46:50.901Z,100700.09
2022-10-29T08:49:52.280Z,100694.88
2022-10-29T08:52:34.172Z,100697.19
2022-10-29T08:55:27.486Z,100694.69
2022-10-29T08:58:03.610Z,100691.91
2022-10-29T09:00:38.628Z,100686.63
2022-10-29T09:03:13.597Z,100685.16
2022-10-29T09:06:09.964Z,100687.06
2022-10-29T09:08:58.838Z,100676.66
2022-10-29T09:11:56.168Z,100674.97
2022-10-29T09:15:12.999Z,100670.22
2022-10-29T09:18:07.364Z,100671.41
2022-10-29T09:20:59.342Z,100674.94
2022-10-29T09:23:47.717Z,100669.97
2022-10-29T09:26:33.838Z,100672.13
2022-10-29T09:29:32.529Z,100665.50
2022-10-29T09:32:27.560Z,100656.91
2022-10-29T09:35:14.906Z,100655.66
2022-10-29T09:37:57.520Z,100648.34
2022-10-29T09:40:39.266Z,100653.06
2022-10-29T09:43:53.351Z,100645.84
2022-10-29T09:46:41.324Z,100638.78
2022-10-29T09:49:45.028Z,100640.94
2022-10-29T09:52:26.614Z,100628.81
2022-10-29T09:54:55.884Z,100631.09
2022-10-29T09:57:29.533Z,100623.41
2022-10-29T10:00:01.876Z,100610.84
2022-10-29T10:03:02.923Z,100609.59
2022-10-29T10:06:00.913Z,100610.44
2022-10-29T10:08:28.733Z,100601.84
2022-10-29T10:11:06.182Z,100605.38
2022-10-29T10:13:38.500Z,100595.31
2022-10-29T10:16:07.185Z,100587.66
2022-10-29T10:21:24.488Z,100583.75
2022-10-29T10:23:57.059Z,100575.22
2022-10-29T10:26:44.016Z,100572.53
2022-10-29T10:29:21.181Z,100566.84
2022-10-29T10:32:19.437Z,100567.31
2022-10-29T10:34:46.884Z,100554.28
2022-10-29T10:37:21.661Z,100559.06
2022-10-29T10:40:05.799Z,100555.03
2022-10-29T10:42:39.510Z,100550.00
2022-10-29T10:45:34.860Z,100543.75
2022-10-29T10:48:02.983Z,100538.69
2022-10-29T10:50:36.279Z,100536.59
2022-10-29T10:53:21.530Z,100535.66
2022-10-29T10:56:00.498Z,100536.50
2022-10-29T10:58:35.771Z,100532.41
2022-10-29T11:01:20.984Z,100528.63
2022-10-29T11:04:17.942Z,100530.19
2022-10-29T11:06:51.125Z,100525.19
2022-10-29T11:09:32.975Z,100520.44
2022-10-29T11:12:22.268Z,100512.13
2022-10-29T11:15:16.832Z,100516.44
2022-10-29T11:18:12.052Z,100500.41
2022-10-29T11:20:47.675Z,100508.47
2022-10-29T11:23:29.745Z,100503.44
2022-10-29T11:26:25.669Z,100507.09
2022-10-29T11:29:34.708Z,100497.56
2022-10-29T11:32:28.691Z,100494.16
2022-10-29T11:35:19.581Z,100492.97
2022-10-29T11:38:05.224Z,100486.31
2022-10-29T11:40:58.460Z,100475.97
2022-10-29T11:43:26.258Z,100476.13
2022-10-29T11:46:08.997Z,100471.53
2022-10-29T11:49:02.488Z,100469.53
2022-10-29T11:51:51.975Z,100458.38
2022-10-29T11:55:07.921Z,100459.22
2022-10-29T11:57:56.100Z,100459.19
2022-10-29T12:00:25.092Z,100455.00
2022-10-29T12:03:24.824Z,100448.56
2022-10-29T12:06:14.794Z,100443.25
2022-10-29T12:08:51.194Z,100435.88
2022-10-29T12:11:46.597Z,100431.44
2022-10-29T12:14:29.986Z,100428.44
2022-10-29T12:17:11.193Z,100428.81
2022-10-29T12:19:57.006Z,100434.63
2022-10-29T12:22:39.711Z,100430.63
2022-10-29T12:25:37.674Z,100421.66
2022-10-29T12:28:30.288Z,100424.72
2022-10-29T12:31:29.976Z,100419.69
2022-10-29T12:34:15.143Z,100420.38
2022-10-29T12:37:12.624Z,100411.88
2022-10-29T12:39:58.038Z,100412.06
2022-10-29T12:42:28.023Z,100403.53
2022-10-29T12:46:18.600Z,100406.63
2022-10-29T12:49:23.592Z,100399.84
2022-10-29T12:51:58.119Z,100398.81
2022-10-29T12:54:46.619Z,100398.22
2022-10-29T12:57:16.653Z,100395.34
2022-10-29T12:59:45.451Z,100394.91
2022-10-29T13:02:38.716Z,100387.97
2022-10-29T13:05:14.452Z,100388.72
2022-10-29T13:08:05.174Z,100380.44
2022-10-29T13:10:32.585Z,100379.47
2022-10-29T13:13:31.662Z,100373.38
2022-10-29T13:16:07.598Z,100366.13
2022-10-29T13:19:01.932Z,100371.38
2022-10-29T13:52:24.915Z,100337.09
2022-10-29T13:55:12.414Z,100336.69
2022-10-29T13:58:25.634Z,100335.78
2022-10-29T14:00:57.177Z,100330.38
2022-10-29T14:03:49.504Z,100324.31
2022-10-29T14:06:29.110Z,100320.47
2022-10-29T14:09:26.553Z,100316.81
2022-10-29T14:12:05.456Z,100316.25
2022-10-29T14:14:55.921Z,100316.25
2022-10-29T14:17:43.581Z,100313.78
2022-10-29T14:20:40.176Z,100312.47
2022-10-29T14:23:10.645Z,100316.75
2022-10-29T14:25:39.563Z,100308.03
2022-10-29T14:28:26.343Z,100313.09
2022-10-29T14:31:15.002Z,100299.25
2022-10-29T14:33:56.739Z,100294.84
2022-10-29T14:36:30.021Z,100297.16
2022-10-29T14:39:28.827Z,100299.88
2022-10-29T14:42:01.134Z,100300.25
2022-10-29T14:44:32.950Z,100293.50
2022-10-29T14:47:19.529Z,100295.44
2022-10-29T14:49:50.621Z,100296.66
2022-10-29T14:52:31.240Z,100303.19
2022-10-29T14:55:30.195Z,100298.28
2022-10-29T14:58:28.369Z,100291.84
2022-10-29T15:01:05.898Z,100289.22
2022-10-29T15:03:35.817Z,100283.63
2022-10-29T15:06:16.294Z,100288.13
2022-10-29T15:09:00.629Z,100281.19
2022-10-29T15:11:39.752Z,100285.88
2022-10-29T15:14:37.714Z,100277.28
2022-10-29T15:17:27.388Z,100278.56
2022-10-29T15:20:03.864Z,100282.97
2022-10-29T15:22:40.602Z,100271.50
2022-10-29T15:25:17.271Z,100272.63
2022-10-29T15:27:45.247Z,100277.69
2022-10-29T15:30:22.130Z,100275.44
2022-10-29T15:32:50.888Z,100279.38
2022-10-29T15:35:23.699Z,100279.75
2022-10-29T15:37:51.761Z,100279.63
2022-10-29T15:40:25.435Z,100283.50
2022-10-29T15:42:55.745Z,100288.78
2022-10-29T15:45:27.561Z,100291.94
2022-10-29T15:48:30.054Z,100292.19
2022-10-29T15:50:57.745Z,100293.66
2022-10-29T15:53:28.490Z,100296.88
2022-10-29T15:55:58.657Z,100299.69
2022-10-29T15:58:26.218Z,100300.06
2022-10-29T16:00:53.730Z,100292.38
2022-10-29T16:03:27.083Z,100297.81
2022-10-29T16:05:59.173Z,100297.09
2022-10-29T16:08:34.980Z,100291.94
2022-10-29T16:11:08.307Z,100298.16
2022-10-29T16:13:40.496Z,100302.38
2022-10-29T16:16:23.857Z,100298.50
2022-10-29T16:18:53.525Z,100302.69
2022-10-29T16:21:27.007Z,100303.19
2022-10-29T16:24:03.814Z,100301.13
2022-10-29T16:26:35.828Z,100304.81
2022-10-29T16:29:03.374Z,100303.59
2022-10-29T16:31:33.184Z,100305.63
2022-10-29T16:34:05.327Z,100312.72
2022-10-29T16:36:34.432Z,100308.53
2022-10-29T16:39:03.141Z,100317.38
2022-10-29T16:41:33.648Z,100322.63
2022-10-29T16:44:01.944Z,100319.41
2022-10-29T16:46:30.054Z,100314.44
2022-10-29T16:48:58.817Z,100318.56
2022-10-29T16:51:26.312Z,100317.50
2022-10-29T16:53:54.670Z,100317.84
2022-10-29T16:56:22.181Z,100317.97
2022-10-29T16:58:49.954Z,100322.06
2022-10-29T17:01:17.654Z,100319.97
2022-10-29T17:03:45.287Z,100314.78
2022-10-29T17:06:15.226Z,100312.13
2022-10-29T17:08:42.740Z,100320.78
2022-10-29T17:11:10.381Z,100324.44
2022-10-29T17:13:38.592Z,100320.44
2022-10-29T17:16:16.633Z,100327.19
2022-10-29T17:18:44.085Z,100325.19
2022-10-29T17:21:14.205Z,100327.06
2022-10-29T17:23:42.028Z,100330.69
2022-10-29T17:26:09.620Z,100326.56
2022-10-29T17:28:38.595Z,100326.50
2022-10-29T17:31:08.613Z,100327.59
2022-10-29T17:33:37.329Z,100331.56
2022-10-29T17:36:13.193Z,100323.72
2022-10-29T17:38:41.095Z,100330.78
2022-10-29T17:41:10.103Z,100332.19
2022-10-29T17:43:40.641Z,100329.47
2022-10-29T17:46:08.225Z,100332.31
2022-10-29T17:48:36.788Z,100333.38
2022-10-29T17:51:04.548Z,100330.97
2022-10-29T17:53:32.589Z,100329.72
2022-10-29T17:56:01.362Z,100327.78
2022-10-29T17:58:29.272Z,100324.25
2022-10-29T18:01:28.588Z,100327.53
2022-10-29T18:04:06.741Z,100320.81
2022-10-29T18:06:34.328Z,100326.25
2022-10-29T18:09:01.908Z,100334.47
2022-10-29T18:11:30.340Z,100336.69
2022-10-29T18:14:03.832Z,100335.41
2022-10-29T18:16:33.845Z,100340.59
2022-10-29T18:19:03.208Z,100343.34
2022-10-29T18:21:31.902Z,100342.09
2022-10-29T18:24:02.315Z,100346.06
2022-10-29T18:26:37.942Z,100334.88
2022-10-29T18:29:13.176Z,100335.31
2022-10-29T18:31:45.067Z,100340.69
2022-10-29T18:34:17.072Z,100336.88
2022-10-29T18:36:48.975Z,100339.78
2022-10-29T18:39:18.118Z,100337.91
2022-10-29T18:41:45.567Z,100346.72
2022-10-29T18:44:15.929Z,100347.31
2022-10-29T18:46:43.569Z,100338.28
2022-10-29T18:49:15.515Z,100343.47
2022-10-29T18:51:43.598Z,100341.44
2022-10-29T18:54:14.978Z,100338.06
2022-10-29T18:56:42.824Z,100353.38
2022-10-29T18:59:12.836Z,100348.44
2022-10-29T19:01:40.834Z,100332.50
2022-10-29T19:04:13.487Z,100337.22
2022-10-29T19:06:41.388Z,100343.97
2022-10-29T19:09:10.805Z,100338.88
2022-10-29T19:11:40.474Z,100347.09
2022-10-29T19:14:14.409Z,100343.13
2022-10-29T19:16:42.236Z,100345.75
2022-10-29T19:19:14.406Z,100342.41
2022-10-29T19:21:43.250Z,100346.19
2022-10-29T19:24:15.546Z,100339.50
2022-10-29T19:26:43.944Z,100351.78
2022-10-29T19:29:14.001Z,100347.34
2022-10-29T19:31:42.843Z,100351.44
2022-10-29T19:34:10.667Z,100352.94
2022-10-29T19:36:40.331Z,100348.88
2022-10-29T19:39:08.717Z,100352.78
2022-10-29T19:41:37.836Z,100352.47
2022-10-29T19:44:07.310Z,100350.31
2022-10-29T19:46:36.733Z,100360.91
2022-10-29T19:49:04.280Z,100361.22
2022-10-29T19:51:31.779Z,100358.22
2022-10-29T19:54:02.055Z,100359.03
2022-10-29T19:56:29.747Z,100357.88
2022-10-29T19:59:00.627Z,100358.41
2022-10-29T20:01:28.265Z,100362.41
2022-10-29T20:03:57.795Z,100367.03
2022-10-29T20:06:25.512Z,100368.41
2022-10-29T20:08:54.436Z,100364.41
2022-10-29T20:11:23.704Z,100374.44
2022-10-29T20:13:51.877Z,100364.66
2022-10-29T20:16:21.793Z,100368.19
2022-10-29T20:18:50.524Z,100366.34
2022-10-29T20:21:18.478Z,100361.56
2022-10-29T20:23:47.228Z,100367.03
2022-10-29T20:26:15.971Z,100367.28
2022-10-29T20:28:48.487Z,100366.94
2022-10-29T20:31:27.816Z,100367.03
2022-10-29T20:34:00.022Z,100363.03
2022-10-29T20:36:32.712Z,100358.06
2022-10-29T20:39:00.835Z,100372.47
2022-10-29T20:41:29.240Z,100367.50
2022-10-29T20:44:01.393Z,100363.25
2022-10-29T20:46:29.844Z,100369.28
2022-10-29T20:48:57.465Z,100363.81
2022-10-29T20:51:29.618Z,100370.44
2022-10-29T20:53:59.287Z,100373.19
2022-10-29T20:56:28.190Z,100375.53
2022-10-29T20:58:55.867Z,100372.19
2022-10-29T21:01:26.214Z,100365.88
2022-10-29T21:03:53.989Z,100361.03
2022-10-29T21:06:21.797Z,100358.56
2022-10-29T21:08:52.127Z,100359.44
2022-10-29T21:11:22.017Z,100365.97
2022-10-29T21:13:50.414Z,100362.00
2022-10-29T21:16:48.715Z,100358.50
2022-10-29T21:19:16.162Z,100359.38
2022-10-29T21:21:43.597Z,100358.78
2022-10-29T21:24:11.034Z,100362.66
2022-10-29T21:26:38.448Z,100354.19
2022-10-29T21:29:06.036Z,100360.91
2022-10-29T21:31:33.459Z,100360.06
2022-10-29T21:34:01.251Z,100353.63
2022-10-29T21:36:28.709Z,100353.50
2022-10-29T21:38:56.408Z,100343.84
2022-10-29T21:41:23.880Z,100348.13
2022-10-29T21:43:51.353Z,100351.75
2022-10-29T21:46:18.795Z,100351.75
2022-10-29T21:48:46.341Z,100348.38
2022-10-29T21:51:17.635Z,100348.72
2022-10-29T21:53:45.112Z,100351.38
2022-10-29T21:56:14.678Z,100347.16
2022-10-29T21:58:42.608Z,100343.00
2022-10-29T22:01:16.293Z,100347.47
2022-10-29T22:03:47.941Z,100342.66
2022-10-29T22:06:21.616Z,100342.41
2022-10-29T22:08:55.590Z,100342.63
2022-10-29T22:11:24.726Z,100340.88
2022-10-29T22:13:53.579Z,100342.78
2022-10-29T22:16:22.367Z,100336.69
2022-10-29T22:18:50.127Z,100322.00
2022-10-29T22:21:22.093Z,100326.41
2022-10-29T22:23:59.189Z,100330.50
2022-10-29T22:26:29.771Z,100334.91
2022-10-29T22:28:57.732Z,100323.16
2022-10-29T22:31:25.859Z,100317.00
2022-10-29T22:33:53.773Z,100316.34
2022-10-29T22:36:24.444Z,100314.31
2022-10-29T22:38:57.323Z,100305.28
2022-10-29T22:41:26.298Z,100305.16
2022-10-29T22:44:01.295Z,100306.69
2022-10-29T22:46:30.722Z,100310.16
2022-10-29T22:48:58.577Z,100307.34
2022-10-29T22:51:30.028Z,100311.75
2022-10-29T22:54:00.433Z,100309.25
2022-10-29T22:56:32.752Z,100314.72
2022-10-29T22:59:00.931Z,100307.53
2022-10-29T23:01:32.011Z,100299.84
2022-10-29T23:04:03.111Z,100302.94
2022-10-29T23:06:31.006Z,100306.13
2022-10-29T23:08:59.045Z,100309.91
2022-10-29T23:11:29.604Z,100320.94
2022-10-29T23:14:02.117Z,100323.09
2022-10-29T23:16:32.903Z,100312.16
2022-10-29T23:19:03.858Z,100319.78
2022-10-29T23:21:31.768Z,100313.69
2022-10-29T23:23:59.834Z,100321.41
2022-10-29T23:26:27.777Z,100320.41
2022-10-29T23:28:55.587Z,100312.97
2022-10-29T23:31:26.265Z,100316.25
2022-10-29T23:33:56.243Z,100314.66
2022-10-29T23:36:25.834Z,100310.19
2022-10-29T23:38:59.780Z,100305.09
2022-10-29T23:41:31.879Z,100308.84
2022-10-29T23:44:02.491Z,100307.72
2022-10-29T23:46:30.011Z,100297.38
2022-10-29T23:48:57.425Z,100312.53
2022-10-29T23:51:24.980Z,100300.00
2022-10-29T23:53:56.414Z,100298.78
2022-10-29T23:56:26.076Z,100305.16
2022-10-29T23:58:53.547Z,100296.72
